createdAt,value
2019-04-29T00:00:46.276Z,0.00
2019-04-29T00:01:46.233Z,0.00
2019-04-29T00:03:46.183Z,0.00
2019-04-29T00:04:51.307Z,0.00
2019-04-29T00:06:46.124Z,0.00
2019-04-29T00:07:46.401Z,0.00
2019-04-29T00:08:46.071Z,0.00
2019-04-29T00:09:46.056Z,0.00
2019-04-29T00:10:46.020Z,0.00
2019-04-29T00:11:46.000Z,0.00
2019-04-29T00:12:45.983Z,0.00
2019-04-29T00:13:46.268Z,0.00
2019-04-29T00:14:46.041Z,0.00
2019-04-29T00:15:46.034Z,0.00
2019-04-29T00:18:45.845Z,0.00
2019-04-29T00:19:46.136Z,0.00
2019-04-29T00:21:45.786Z,0.00
2019-04-29T00:23:45.736Z,0.00
2019-04-29T00:24:45.946Z,0.00
2019-04-29T00:25:46.001Z,0.00
2019-04-29T00:27:45.955Z,0.00
2019-04-29T00:28:45.628Z,0.00
2019-04-29T00:29:45.809Z,0.00
2019-04-29T00:30:45.730Z,0.00
2019-04-29T00:31:45.821Z,0.00
2019-04-29T00:32:45.634Z,0.00
2019-04-29T00:33:45.513Z,0.00
2019-04-29T00:34:45.502Z,0.00
2019-04-29T00:35:45.500Z,0.00
2019-04-29T00:36:45.452Z,0.00
2019-04-29T00:37:45.680Z,0.00
2019-04-29T00:38:45.424Z,0.00
2019-04-29T00:39:45.384Z,0.00
2019-04-29T00:40:45.371Z,0.00
2019-04-29T00:41:45.439Z,0.00
2019-04-29T00:42:45.317Z,0.00
2019-04-29T00:43:45.599Z,0.00
2019-04-29T00:44:45.309Z,0.00
2019-04-29T00:45:45.247Z,0.00
2019-04-29T00:46:45.232Z,0.00
2019-04-29T00:48:45.187Z,0.00
2019-04-29T00:49:45.464Z,0.00
2019-04-29T00:50:45.143Z,0.00
2019-04-29T00:51:45.126Z,0.00
2019-04-29T00:53:45.074Z,0.00
2019-04-29T00:55:45.036Z,0.00
2019-04-29T00:56:45.315Z,0.00
2019-04-29T00:57:44.992Z,0.00
2019-04-29T00:58:44.990Z,0.00
2019-04-29T01:00:44.929Z,0.00
2019-04-29T01:01:44.903Z,0.00
2019-04-29T01:02:44.899Z,0.00
2019-04-29T01:03:45.171Z,0.00
2019-04-29T01:04:44.833Z,0.00
2019-04-29T01:05:44.807Z,0.00
2019-04-29T01:06:44.790Z,0.00
2019-04-29T01:07:44.769Z,0.00
2019-04-29T01:08:44.742Z,0.00
2019-04-29T01:09:44.721Z,0.00
2019-04-29T01:10:45.003Z,0.00
2019-04-29T01:11:44.677Z,0.00
2019-04-29T01:13:44.963Z,0.00
2019-04-29T01:14:44.613Z,0.00
2019-04-29T01:15:44.594Z,0.00
2019-04-29T01:16:44.570Z,0.00
2019-04-29T01:17:44.853Z,0.00
2019-04-29T01:19:44.506Z,0.00
2019-04-29T01:20:44.893Z,0.00
2019-04-29T01:21:44.466Z,0.00
2019-04-29T01:22:44.444Z,0.00
2019-04-29T01:23:44.420Z,0.00
2019-04-29T01:24:44.772Z,0.00
2019-04-29T01:25:44.552Z,0.00
2019-04-29T01:26:44.358Z,0.00
2019-04-29T01:27:44.327Z,0.00
2019-04-29T01:28:44.317Z,0.00
2019-04-29T01:30:44.260Z,0.00
2019-04-29T01:31:44.543Z,0.00
2019-04-29T01:32:44.322Z,0.00
2019-04-29T01:33:44.193Z,0.00
2019-04-29T01:34:44.174Z,0.00
2019-04-29T01:35:44.146Z,0.00
2019-04-29T01:36:44.140Z,0.00
2019-04-29T01:37:44.407Z,0.00
2019-04-29T01:38:44.086Z,0.00
2019-04-29T01:39:44.162Z,0.00
2019-04-29T01:40:44.034Z,0.00
2019-04-29T01:41:44.023Z,0.00
2019-04-29T01:42:44.025Z,0.00
2019-04-29T01:43:44.282Z,0.00
2019-04-29T01:44:44.155Z,0.00
2019-04-29T01:45:44.034Z,0.00
2019-04-29T01:46:43.916Z,0.00
2019-04-29T01:47:43.935Z,0.00
2019-04-29T01:48:43.867Z,0.00
2019-04-29T01:49:44.142Z,0.00
2019-04-29T01:50:43.820Z,0.00
2019-04-29T01:51:43.908Z,0.00
2019-04-29T01:52:43.781Z,0.00
2019-04-29T01:53:43.776Z,0.00
2019-04-29T01:54:43.834Z,0.00
2019-04-29T01:55:44.023Z,0.00
2019-04-29T01:56:43.697Z,0.00
2019-04-29T01:57:43.668Z,0.00
2019-04-29T01:58:43.764Z,0.00
2019-04-29T01:59:43.625Z,0.00
2019-04-29T02:00:43.610Z,0.00
2019-04-29T02:02:43.853Z,0.00
2019-04-29T02:03:43.532Z,0.00
2019-04-29T02:04:43.510Z,0.00
2019-04-29T02:05:43.496Z,0.00
2019-04-29T02:06:43.578Z,0.00
2019-04-29T02:07:43.542Z,0.00
2019-04-29T02:08:43.722Z,0.00
2019-04-29T02:09:43.701Z,0.00
2019-04-29T02:11:43.356Z,0.00
2019-04-29T02:12:43.335Z,0.00
2019-04-29T02:13:43.414Z,0.00
2019-04-29T02:14:43.585Z,0.00
2019-04-29T02:15:43.268Z,0.00
2019-04-29T02:18:43.201Z,0.00
2019-04-29T02:19:43.195Z,0.00
2019-04-29T02:20:43.256Z,0.00
2019-04-29T02:21:43.831Z,0.00
2019-04-29T02:22:43.118Z,0.00
2019-04-29T02:23:43.092Z,0.00
2019-04-29T02:25:43.053Z,0.00
2019-04-29T02:26:43.028Z,0.00
2019-04-29T02:27:43.013Z,0.00
2019-04-29T02:28:43.309Z,0.00
2019-04-29T02:30:42.942Z,0.00
2019-04-29T02:31:42.917Z,0.00
2019-04-29T02:32:43.638Z,0.00
2019-04-29T02:33:42.925Z,0.00
2019-04-29T02:34:42.962Z,0.00
2019-04-29T02:35:43.120Z,0.00
2019-04-29T02:36:42.810Z,0.00
2019-04-29T02:37:42.780Z,0.00
2019-04-29T02:38:42.846Z,0.00
2019-04-29T02:40:42.716Z,0.00
2019-04-29T02:41:42.695Z,0.00
2019-04-29T02:42:42.988Z,0.00
2019-04-29T02:43:42.648Z,0.00
2019-04-29T02:44:42.622Z,0.00
2019-04-29T02:45:42.604Z,0.00
2019-04-29T02:46:42.579Z,0.00
2019-04-29T02:47:42.658Z,0.00
2019-04-29T02:48:42.533Z,0.00
2019-04-29T02:49:42.813Z,0.00
2019-04-29T02:50:42.607Z,0.00
2019-04-29T02:51:42.475Z,0.00
2019-04-29T02:52:42.465Z,0.00
2019-04-29T02:53:42.423Z,0.00
2019-04-29T02:54:42.401Z,0.00
2019-04-29T02:55:42.482Z,0.00
2019-04-29T02:56:42.861Z,0.00
2019-04-29T02:57:42.446Z,0.00
2019-04-29T02:58:42.375Z,0.00
2019-04-29T02:59:42.348Z,0.00
2019-04-29T03:01:42.251Z,0.00
2019-04-29T03:02:42.229Z,0.00
2019-04-29T03:03:42.522Z,0.00
2019-04-29T03:04:42.906Z,0.00
2019-04-29T03:05:42.159Z,0.00
2019-04-29T03:06:42.133Z,0.00
2019-04-29T03:07:42.128Z,0.00
2019-04-29T03:08:42.202Z,0.00
2019-04-29T03:09:42.367Z,0.00
2019-04-29T03:10:42.062Z,0.00
2019-04-29T03:11:42.026Z,0.00
2019-04-29T03:12:42.018Z,0.00
2019-04-29T03:13:42.180Z,0.00
2019-04-29T03:14:41.967Z,0.00
2019-04-29T03:17:42.205Z,0.00
2019-04-29T03:18:41.891Z,0.00
2019-04-29T03:19:41.852Z,0.00
2019-04-29T03:21:41.802Z,0.00
2019-04-29T03:22:41.784Z,0.00
2019-04-29T03:23:42.059Z,0.00
2019-04-29T03:24:41.735Z,0.00
2019-04-29T03:25:41.813Z,0.00
2019-04-29T03:26:41.687Z,0.00
2019-04-29T03:27:41.685Z,0.00
2019-04-29T03:28:41.653Z,0.00
2019-04-29T03:29:41.924Z,0.00
2019-04-29T03:30:41.605Z,0.00
2019-04-29T03:31:41.581Z,0.00
2019-04-29T03:32:41.557Z,0.00
2019-04-29T03:33:41.644Z,0.00
2019-04-29T03:34:41.622Z,0.00
2019-04-29T03:35:41.789Z,0.00
2019-04-29T03:36:41.475Z,0.00
2019-04-29T03:37:41.496Z,0.00
2019-04-29T03:38:41.423Z,0.00
2019-04-29T03:39:41.406Z,0.00
2019-04-29T03:40:41.391Z,0.00
2019-04-29T03:41:41.361Z,0.00
2019-04-29T03:42:41.637Z,0.00
2019-04-29T03:43:41.464Z,0.00
2019-04-29T03:44:41.309Z,0.00
2019-04-29T03:45:41.273Z,0.00
2019-04-29T03:46:41.247Z,0.00
2019-04-29T03:47:41.238Z,0.00
2019-04-29T03:48:41.215Z,0.00
2019-04-29T03:49:41.478Z,0.00
2019-04-29T03:50:41.177Z,5.63
2019-04-29T03:52:41.163Z,5.63
2019-04-29T03:53:41.092Z,5.63
2019-04-29T03:54:41.073Z,5.63
2019-04-29T03:55:41.163Z,5.63
2019-04-29T03:56:41.336Z,5.63
2019-04-29T03:58:40.987Z,5.63
2019-04-29T03:59:41.262Z,11.25
2019-04-29T04:00:44.106Z,11.25
2019-04-29T04:01:40.964Z,11.25
2019-04-29T04:02:40.919Z,11.25
2019-04-29T04:03:41.175Z,11.25
2019-04-29T04:04:40.843Z,11.25
2019-04-29T04:05:40.818Z,11.25
2019-04-29T04:06:40.809Z,11.25
2019-04-29T04:07:40.785Z,11.25
2019-04-29T04:08:40.773Z,11.25
2019-04-29T04:09:40.834Z,11.25
2019-04-29T04:10:41.027Z,11.25
2019-04-29T04:11:40.695Z,16.88
2019-04-29T04:12:40.682Z,16.88
2019-04-29T04:13:40.747Z,16.88
2019-04-29T04:14:40.725Z,16.88
2019-04-29T04:15:40.601Z,22.50
2019-04-29T04:16:40.680Z,22.50
2019-04-29T04:17:40.870Z,22.50
2019-04-29T04:18:40.536Z,28.13
2019-04-29T04:19:40.535Z,28.13
2019-04-29T04:20:40.507Z,28.13
2019-04-29T04:21:40.465Z,33.75
2019-04-29T04:22:40.457Z,33.75
2019-04-29T04:23:40.423Z,39.38
2019-04-29T04:24:40.713Z,39.38
2019-04-29T04:25:40.391Z,39.38
2019-04-29T04:26:40.362Z,39.38
2019-04-29T04:27:40.339Z,39.38
2019-04-29T04:28:40.327Z,39.38
2019-04-29T04:29:40.614Z,39.38
2019-04-29T04:30:40.857Z,39.38
2019-04-29T04:31:40.254Z,39.38
2019-04-29T04:32:40.224Z,39.38
2019-04-29T04:33:40.228Z,39.38
2019-04-29T04:34:40.203Z,39.38
2019-04-29T04:35:40.158Z,39.38
2019-04-29T04:36:40.464Z,39.38
2019-04-29T04:37:40.121Z,39.38
2019-04-29T04:38:40.145Z,45.00
2019-04-29T04:39:40.106Z,45.00
2019-04-29T04:40:40.059Z,45.00
2019-04-29T04:41:40.028Z,45.00
2019-04-29T04:42:40.273Z,45.00
2019-04-29T04:43:40.231Z,50.63
2019-04-29T04:44:40.027Z,50.63
2019-04-29T04:45:40.480Z,50.63
2019-04-29T04:46:40.011Z,50.63
2019-04-29T04:47:39.911Z,56.25
2019-04-29T04:49:40.262Z,56.25
2019-04-29T04:50:39.913Z,61.88
2019-04-29T04:51:39.809Z,61.88
2019-04-29T04:52:39.989Z,67.50
2019-04-29T04:56:40.568Z,78.75
2019-04-29T04:58:44.270Z,78.75
2019-04-29T04:59:42.317Z,78.75
2019-04-29T05:00:40.969Z,78.75
2019-04-29T05:01:39.958Z,78.75
2019-04-29T05:02:39.627Z,78.75
2019-04-29T05:03:39.737Z,84.38
2019-04-29T05:04:39.828Z,84.38
2019-04-29T05:05:45.822Z,84.38
2019-04-29T05:06:39.491Z,84.38
2019-04-29T05:07:39.473Z,84.38
2019-04-29T05:08:39.449Z,78.75
2019-04-29T05:09:39.417Z,78.75
2019-04-29T05:10:39.403Z,78.75
2019-04-29T05:12:39.657Z,78.75
2019-04-29T05:13:39.332Z,78.75
2019-04-29T05:14:39.314Z,84.38
2019-04-29T05:15:39.310Z,90.00
2019-04-29T05:17:39.246Z,95.63
2019-04-29T05:18:39.579Z,95.63
2019-04-29T05:19:40.392Z,95.63
2019-04-29T05:20:39.531Z,95.63
2019-04-29T05:21:39.475Z,95.63
2019-04-29T05:22:39.341Z,90.00
2019-04-29T05:23:41.656Z,90.00
2019-04-29T05:24:39.800Z,90.00
2019-04-29T05:25:39.354Z,90.00
2019-04-29T05:26:39.457Z,84.38
2019-04-29T05:27:39.077Z,84.38
2019-04-29T05:28:39.059Z,78.75
2019-04-29T05:29:38.994Z,73.13
2019-04-29T05:30:39.324Z,73.13
2019-04-29T05:33:39.221Z,90.00
2019-04-29T05:34:41.822Z,95.63
2019-04-29T05:35:40.320Z,106.88
2019-04-29T05:36:39.363Z,112.50
2019-04-29T05:37:38.818Z,118.13
2019-04-29T05:38:38.808Z,118.13
2019-04-29T05:39:38.794Z,118.13
2019-04-29T05:41:38.756Z,123.75
2019-04-29T05:42:38.913Z,123.75
2019-04-29T05:43:38.726Z,118.13
2019-04-29T05:45:41.506Z,118.13
2019-04-29T05:46:39.380Z,118.13
2019-04-29T05:47:38.628Z,123.75
2019-04-29T05:48:39.299Z,123.75
2019-04-29T05:49:41.604Z,123.75
2019-04-29T05:50:38.556Z,123.75
2019-04-29T05:51:38.527Z,118.13
2019-04-29T05:52:39.626Z,118.13
2019-04-29T05:53:38.489Z,118.13
2019-04-29T05:55:38.460Z,123.75
2019-04-29T05:56:38.418Z,129.38
2019-04-29T05:57:38.403Z,129.38
2019-04-29T05:58:39.603Z,140.63
2019-04-29T05:59:38.355Z,140.63
2019-04-29T06:00:38.437Z,140.63
2019-04-29T06:01:38.322Z,146.25
2019-04-29T06:02:38.843Z,146.25
2019-04-29T06:03:39.765Z,146.25
2019-04-29T06:04:38.647Z,146.25
2019-04-29T06:05:38.267Z,146.25
2019-04-29T06:07:38.182Z,146.25
2019-04-29T06:09:38.161Z,151.88
2019-04-29T06:10:41.774Z,151.88
2019-04-29T06:11:38.109Z,151.88
2019-04-29T06:12:39.314Z,146.25
2019-04-29T06:13:38.096Z,163.13
2019-04-29T06:14:38.125Z,168.75
2019-04-29T06:15:38.016Z,157.50
2019-04-29T06:16:38.314Z,157.50
2019-04-29T06:17:40.229Z,151.88
2019-04-29T06:18:40.800Z,146.25
2019-04-29T06:19:39.434Z,146.25
2019-04-29T06:20:38.099Z,151.88
2019-04-29T06:21:37.890Z,146.25
2019-04-29T06:23:38.183Z,135.00
2019-04-29T06:25:37.804Z,112.50
2019-04-29T06:26:37.787Z,106.88
2019-04-29T06:27:37.768Z,101.25
2019-04-29T06:28:37.751Z,95.63
2019-04-29T06:29:38.027Z,95.63
2019-04-29T06:30:40.556Z,90.00
2019-04-29T06:32:37.685Z,90.00
2019-04-29T06:33:38.697Z,90.00
2019-04-29T06:35:37.855Z,84.38
2019-04-29T06:36:38.069Z,73.13
2019-04-29T06:38:37.632Z,67.50
2019-04-29T06:39:37.554Z,73.13
2019-04-29T06:40:37.503Z,73.13
2019-04-29T06:41:40.733Z,78.75
2019-04-29T06:42:37.700Z,90.00
2019-04-29T06:43:38.465Z,90.00
2019-04-29T06:44:37.431Z,84.38
2019-04-29T06:45:37.484Z,101.25
2019-04-29T06:47:37.449Z,106.88
2019-04-29T06:48:37.394Z,106.88
2019-04-29T06:49:37.296Z,112.50
2019-04-29T06:50:37.579Z,118.13
2019-04-29T06:51:37.311Z,123.75
2019-04-29T06:52:37.250Z,118.13
2019-04-29T06:53:37.212Z,112.50
2019-04-29T06:54:37.213Z,123.75
2019-04-29T06:55:37.204Z,135.00
2019-04-29T06:57:37.169Z,112.50
2019-04-29T06:59:37.839Z,129.38
2019-04-29T07:00:37.069Z,129.38
2019-04-29T07:01:37.556Z,151.88
2019-04-29T07:02:37.025Z,180.00
2019-04-29T07:03:37.007Z,151.88
2019-04-29T07:04:39.542Z,146.25
2019-04-29T07:05:37.280Z,135.00
2019-04-29T07:06:36.966Z,135.00
2019-04-29T07:07:36.939Z,135.00
2019-04-29T07:09:36.886Z,146.25
2019-04-29T07:10:37.062Z,129.38
2019-04-29T07:11:38.381Z,112.50
2019-04-29T07:12:37.112Z,118.13
2019-04-29T07:13:36.824Z,106.88
2019-04-29T07:15:37.051Z,135.00
2019-04-29T07:16:36.729Z,135.00
2019-04-29T07:17:41.173Z,135.00
2019-04-29T07:18:40.398Z,112.50
2019-04-29T07:19:36.665Z,106.88
2019-04-29T07:20:37.009Z,106.88
2019-04-29T07:22:36.678Z,129.38
2019-04-29T07:23:36.632Z,146.25
2019-04-29T07:24:36.884Z,151.88
2019-04-29T07:25:36.557Z,140.63
2019-04-29T07:27:42.983Z,129.38
2019-04-29T07:28:36.537Z,151.88
2019-04-29T07:29:38.162Z,129.38
2019-04-29T07:32:36.390Z,180.00
2019-04-29T07:33:36.485Z,180.00
2019-04-29T07:34:39.250Z,185.63
2019-04-29T07:35:38.199Z,174.38
2019-04-29T07:36:36.379Z,157.50
2019-04-29T07:37:36.385Z,146.25
2019-04-29T07:38:41.460Z,118.13
2019-04-29T07:39:36.259Z,129.38
2019-04-29T07:40:38.880Z,151.88
2019-04-29T07:41:36.224Z,168.75
2019-04-29T07:42:36.501Z,180.00
2019-04-29T07:43:38.522Z,174.38
2019-04-29T07:44:43.779Z,191.25
2019-04-29T07:45:44.113Z,185.63
2019-04-29T07:46:55.119Z,163.13
2019-04-29T07:47:36.091Z,129.38
2019-04-29T07:48:36.811Z,140.63
2019-04-29T07:49:36.044Z,151.88
2019-04-29T07:50:36.018Z,151.88
2019-04-29T07:51:39.552Z,180.00
2019-04-29T07:52:35.975Z,174.38
2019-04-29T07:53:44.778Z,191.25
2019-04-29T07:55:36.214Z,129.38
2019-04-29T07:56:37.800Z,118.13
2019-04-29T07:58:35.846Z,118.13
2019-04-29T07:59:38.387Z,140.63
2019-04-29T08:00:35.836Z,140.63
2019-04-29T08:01:35.800Z,140.63
2019-04-29T08:02:36.077Z,129.38
2019-04-29T08:03:35.754Z,129.38
2019-04-29T08:05:35.714Z,146.25
2019-04-29T08:06:38.274Z,157.50
2019-04-29T08:07:35.803Z,185.63
2019-04-29T08:09:39.900Z,196.88
2019-04-29T08:10:37.022Z,174.38
2019-04-29T08:11:35.672Z,180.00
2019-04-29T08:12:35.549Z,174.38
2019-04-29T08:13:35.532Z,157.50
2019-04-29T08:14:35.508Z,168.75
2019-04-29T08:16:35.772Z,196.88
2019-04-29T08:17:35.482Z,202.50
2019-04-29T08:18:35.437Z,163.13
2019-04-29T08:20:39.610Z,112.50
2019-04-29T08:21:35.379Z,101.25
2019-04-29T08:22:35.369Z,90.00
2019-04-29T08:23:41.024Z,101.25
2019-04-29T08:24:37.444Z,90.00
2019-04-29T08:25:35.300Z,101.25
2019-04-29T08:26:38.272Z,101.25
2019-04-29T08:27:40.733Z,101.25
2019-04-29T08:28:35.276Z,106.88
2019-04-29T08:29:37.179Z,90.00
2019-04-29T08:30:35.492Z,112.50
2019-04-29T08:31:35.177Z,112.50
2019-04-29T08:32:36.285Z,101.25
2019-04-29T08:33:35.119Z,101.25
2019-04-29T08:34:35.094Z,90.00
2019-04-29T08:35:36.762Z,84.38
2019-04-29T08:36:35.498Z,112.50
2019-04-29T08:37:35.354Z,118.13
2019-04-29T08:38:35.023Z,140.63
2019-04-29T08:39:35.022Z,135.00
2019-04-29T08:40:34.967Z,219.38
2019-04-29T08:41:34.957Z,241.88
2019-04-29T08:42:37.296Z,270.00
2019-04-29T08:43:35.217Z,208.13
2019-04-29T08:44:34.889Z,208.13
2019-04-29T08:45:39.039Z,191.25
2019-04-29T08:46:34.908Z,180.00
2019-04-29T08:47:34.879Z,146.25
2019-04-29T08:49:34.796Z,163.13
2019-04-29T08:50:35.103Z,168.75
2019-04-29T08:51:34.743Z,168.75
2019-04-29T08:52:34.730Z,168.75
2019-04-29T08:53:34.712Z,151.88
2019-04-29T08:55:36.507Z,151.88
2019-04-29T08:56:34.946Z,163.13
2019-04-29T08:57:36.580Z,151.88
2019-04-29T08:58:34.595Z,151.88
2019-04-29T08:59:34.586Z,151.88
2019-04-29T09:00:34.573Z,118.13
2019-04-29T09:01:35.791Z,135.00
2019-04-29T09:02:35.838Z,106.88
2019-04-29T09:03:40.338Z,118.13
2019-04-29T09:04:35.340Z,101.25
2019-04-29T09:05:34.460Z,112.50
2019-04-29T09:06:34.537Z,112.50
2019-04-29T09:07:34.425Z,129.38
2019-04-29T09:08:35.051Z,135.00
2019-04-29T09:10:36.790Z,123.75
2019-04-29T09:11:34.359Z,123.75
2019-04-29T09:12:34.324Z,112.50
2019-04-29T09:13:34.298Z,106.88
2019-04-29T09:14:34.582Z,95.63
2019-04-29T09:15:34.281Z,95.63
2019-04-29T09:16:34.316Z,90.00
2019-04-29T09:17:34.235Z,101.25
2019-04-29T09:18:34.198Z,90.00
2019-04-29T09:21:35.363Z,73.13
2019-04-29T09:22:34.669Z,67.50
2019-04-29T09:23:34.398Z,90.00
2019-04-29T09:25:34.101Z,78.75
2019-04-29T09:26:34.037Z,84.38
2019-04-29T09:27:34.221Z,101.25
2019-04-29T09:28:33.987Z,106.88
2019-04-29T09:29:33.967Z,90.00
2019-04-29T09:32:34.091Z,61.88
2019-04-29T09:33:34.186Z,78.75
2019-04-29T09:34:33.881Z,106.88
2019-04-29T09:36:33.844Z,95.63
2019-04-29T09:37:34.498Z,118.13
2019-04-29T09:38:36.969Z,174.38
2019-04-29T09:39:43.164Z,168.75
2019-04-29T09:40:33.796Z,129.38
2019-04-29T09:41:35.048Z,157.50
2019-04-29T09:43:33.675Z,151.88
2019-04-29T09:44:35.320Z,146.25
2019-04-29T09:45:33.703Z,151.88
2019-04-29T09:46:34.559Z,140.63
2019-04-29T09:47:34.019Z,106.88
2019-04-29T09:48:33.587Z,95.63
2019-04-29T09:50:34.167Z,95.63
2019-04-29T09:51:33.614Z,84.38
2019-04-29T09:52:33.492Z,78.75
2019-04-29T09:53:33.778Z,73.13
2019-04-29T09:54:33.456Z,73.13
2019-04-29T09:55:35.569Z,78.75
2019-04-29T09:56:34.829Z,73.13
2019-04-29T09:57:33.390Z,78.75
2019-04-29T09:59:33.356Z,84.38
2019-04-29T10:00:36.232Z,78.75
2019-04-29T10:01:33.327Z,90.00
2019-04-29T10:04:33.248Z,123.75
2019-04-29T10:05:33.230Z,112.50
2019-04-29T10:06:33.215Z,112.50
2019-04-29T10:07:33.490Z,118.13
2019-04-29T10:08:33.488Z,101.25
2019-04-29T10:09:33.152Z,95.63
2019-04-29T10:10:33.131Z,101.25
2019-04-29T10:12:33.085Z,106.88
2019-04-29T10:13:33.076Z,106.88
2019-04-29T10:14:33.319Z,112.50
2019-04-29T10:15:33.226Z,101.25
2019-04-29T10:16:35.974Z,112.50
2019-04-29T10:18:33.060Z,106.88
2019-04-29T10:19:33.234Z,95.63
2019-04-29T10:20:32.928Z,90.00
2019-04-29T10:21:32.931Z,106.88
2019-04-29T10:22:32.881Z,112.50
2019-04-29T10:23:32.929Z,112.50
2019-04-29T10:24:32.840Z,123.75
2019-04-29T10:25:33.328Z,112.50
2019-04-29T10:26:32.818Z,123.75
2019-04-29T10:27:32.785Z,129.38
2019-04-29T10:28:32.771Z,129.38
2019-04-29T10:29:32.901Z,123.75
2019-04-29T10:30:33.112Z,135.00
2019-04-29T10:31:33.106Z,106.88
2019-04-29T10:33:32.667Z,151.88
2019-04-29T10:34:33.062Z,151.88
2019-04-29T10:35:32.709Z,129.38
2019-04-29T10:36:32.602Z,95.63
2019-04-29T10:37:33.195Z,90.00
2019-04-29T10:38:32.872Z,106.88
2019-04-29T10:39:32.547Z,112.50
2019-04-29T10:40:32.597Z,129.38
2019-04-29T10:41:36.125Z,106.88
2019-04-29T10:42:32.480Z,118.13
2019-04-29T10:43:35.683Z,84.38
2019-04-29T10:44:32.450Z,78.75
2019-04-29T10:45:32.448Z,90.00
2019-04-29T10:46:32.554Z,84.38
2019-04-29T10:47:32.387Z,129.38
2019-04-29T10:48:32.367Z,106.88
2019-04-29T10:49:34.712Z,112.50
2019-04-29T10:50:32.316Z,118.13
2019-04-29T10:51:32.324Z,129.38
2019-04-29T10:52:34.445Z,123.75
2019-04-29T10:53:32.375Z,140.63
2019-04-29T10:54:32.245Z,123.75
2019-04-29T10:55:32.207Z,168.75
2019-04-29T10:57:32.179Z,196.88
2019-04-29T10:59:35.972Z,286.88
2019-04-29T11:00:32.312Z,241.88
2019-04-29T11:01:32.149Z,230.63
2019-04-29T11:02:32.394Z,196.88
2019-04-29T11:03:32.062Z,191.25
2019-04-29T11:04:36.102Z,174.38
2019-04-29T11:05:31.998Z,253.13
2019-04-29T11:06:35.699Z,208.13
2019-04-29T11:07:32.044Z,213.75
2019-04-29T11:08:33.805Z,196.88
2019-04-29T11:09:32.026Z,151.88
2019-04-29T11:10:32.088Z,151.88
2019-04-29T11:11:31.950Z,157.50
2019-04-29T11:12:31.905Z,118.13
2019-04-29T11:13:31.958Z,101.25
2019-04-29T11:14:33.206Z,135.00
2019-04-29T11:15:32.666Z,163.13
2019-04-29T11:16:46.183Z,129.38
2019-04-29T11:18:31.985Z,168.75
2019-04-29T11:19:35.032Z,208.13
2019-04-29T11:20:33.303Z,225.00
2019-04-29T11:21:32.018Z,292.50
2019-04-29T11:22:34.065Z,337.50
2019-04-29T11:23:31.830Z,354.38
2019-04-29T11:24:32.483Z,382.50
2019-04-29T11:26:31.663Z,500.63
2019-04-29T11:28:31.844Z,427.50
2019-04-29T11:29:31.561Z,427.50
2019-04-29T11:30:34.951Z,399.38
2019-04-29T11:31:31.541Z,326.25
2019-04-29T11:32:31.490Z,303.75
2019-04-29T11:33:31.456Z,298.13
2019-04-29T11:34:33.259Z,281.25
2019-04-29T11:35:32.127Z,298.13
2019-04-29T11:36:34.989Z,309.38
2019-04-29T11:37:31.477Z,326.25
2019-04-29T11:38:33.333Z,326.25
2019-04-29T11:39:31.340Z,365.63
2019-04-29T11:40:43.214Z,292.50
2019-04-29T11:41:31.298Z,225.00
2019-04-29T11:43:31.270Z,180.00
2019-04-29T11:45:33.765Z,191.25
2019-04-29T11:46:31.648Z,225.00
2019-04-29T11:47:31.583Z,241.88
2019-04-29T11:48:31.213Z,376.88
2019-04-29T11:49:31.345Z,337.50
2019-04-29T11:50:31.219Z,337.50
2019-04-29T11:51:34.108Z,354.38
2019-04-29T11:52:31.208Z,393.75
2019-04-29T11:53:31.371Z,388.13
2019-04-29T11:54:31.086Z,303.75
2019-04-29T11:55:35.527Z,303.75
2019-04-29T11:56:31.587Z,275.63
2019-04-29T11:57:40.668Z,348.75
2019-04-29T11:58:31.007Z,376.88
2019-04-29T11:59:31.415Z,489.38
2019-04-29T12:00:31.409Z,618.75
2019-04-29T12:01:38.615Z,652.50
2019-04-29T12:02:44.817Z,573.75
2019-04-29T12:03:32.477Z,545.63
2019-04-29T12:04:33.549Z,438.75
2019-04-29T12:05:31.558Z,365.63
2019-04-29T12:06:33.645Z,416.25
2019-04-29T12:07:32.535Z,399.38
2019-04-29T12:08:30.948Z,331.88
2019-04-29T12:10:30.862Z,303.75
2019-04-29T12:11:35.838Z,315.00
2019-04-29T12:12:30.737Z,230.63
2019-04-29T12:13:30.767Z,236.25
2019-04-29T12:14:33.778Z,213.75
2019-04-29T12:15:30.671Z,292.50
2019-04-29T12:16:30.713Z,309.38
2019-04-29T12:19:32.148Z,461.25
2019-04-29T12:20:32.320Z,500.63
2019-04-29T12:22:31.086Z,810.00
2019-04-29T12:23:30.558Z,1068.75
2019-04-29T12:25:30.597Z,798.75
2019-04-29T12:26:35.550Z,466.88
2019-04-29T12:28:31.000Z,331.88
2019-04-29T12:29:30.449Z,444.38
2019-04-29T12:30:34.712Z,320.63
2019-04-29T12:31:30.449Z,427.50
2019-04-29T12:32:30.475Z,540.00
2019-04-29T12:33:32.520Z,663.75
2019-04-29T12:34:34.417Z,618.75
2019-04-29T12:36:30.877Z,562.50
2019-04-29T12:37:34.246Z,461.25
2019-04-29T12:38:39.792Z,410.63
2019-04-29T12:39:42.831Z,348.75
2019-04-29T12:40:30.241Z,376.88
2019-04-29T12:41:31.476Z,365.63
2019-04-29T12:42:30.231Z,635.63
2019-04-29T12:44:39.667Z,652.50
2019-04-29T12:45:30.239Z,568.13
2019-04-29T12:46:30.763Z,596.25
2019-04-29T12:47:30.179Z,573.75
2019-04-29T12:48:30.122Z,545.63
2019-04-29T12:50:30.088Z,511.88
2019-04-29T12:51:30.117Z,371.25
2019-04-29T12:52:30.061Z,450.00
2019-04-29T12:53:30.346Z,703.13
2019-04-29T12:54:30.318Z,945.00
2019-04-29T12:55:44.067Z,798.75
2019-04-29T12:56:29.992Z,832.50
2019-04-29T12:58:30.071Z,1215.00
2019-04-29T12:59:30.582Z,877.50
2019-04-29T13:02:30.197Z,658.13
2019-04-29T13:03:31.029Z,585.00
2019-04-29T13:04:29.964Z,759.38
2019-04-29T13:05:29.989Z,776.25
2019-04-29T13:06:39.003Z,635.63
2019-04-29T13:07:29.869Z,945.00
2019-04-29T13:08:30.198Z,810.00
2019-04-29T13:09:29.784Z,708.75
2019-04-29T13:10:30.123Z,815.63
2019-04-29T13:11:40.912Z,770.63
2019-04-29T13:12:30.375Z,781.88
2019-04-29T13:14:33.260Z,590.63
2019-04-29T13:15:29.704Z,607.50
2019-04-29T13:16:29.789Z,523.13
2019-04-29T13:17:30.461Z,607.50
2019-04-29T13:18:29.703Z,478.13
2019-04-29T13:19:30.994Z,399.38
2019-04-29T13:20:29.942Z,427.50
2019-04-29T13:21:29.619Z,433.13
2019-04-29T13:22:29.640Z,331.88
2019-04-29T13:24:29.654Z,483.75
2019-04-29T13:25:29.577Z,562.50
2019-04-29T13:26:33.368Z,624.38
2019-04-29T13:27:36.076Z,635.63
2019-04-29T13:28:34.185Z,714.38
2019-04-29T13:29:32.182Z,736.88
2019-04-29T13:30:29.560Z,641.25
2019-04-29T13:31:38.003Z,725.63
2019-04-29T13:32:31.198Z,596.25
2019-04-29T13:33:29.748Z,534.38
2019-04-29T13:34:32.865Z,528.75
2019-04-29T13:35:29.445Z,523.13
2019-04-29T13:36:29.428Z,697.50
2019-04-29T13:39:39.011Z,523.13
2019-04-29T13:40:32.998Z,990.00
2019-04-29T13:42:29.391Z,939.38
2019-04-29T13:43:35.032Z,995.63
2019-04-29T13:44:29.846Z,961.88
2019-04-29T13:45:29.295Z,1130.63
2019-04-29T13:47:31.040Z,973.13
2019-04-29T13:49:29.359Z,860.63
2019-04-29T13:50:39.487Z,1170.00
2019-04-29T13:51:36.034Z,759.38
2019-04-29T13:52:29.216Z,776.25
2019-04-29T13:54:29.307Z,1293.75
2019-04-29T13:56:39.250Z,1535.63
2019-04-29T13:57:29.506Z,714.38
2019-04-29T13:58:29.430Z,804.38
2019-04-29T13:59:29.139Z,1091.25
2019-04-29T14:00:29.108Z,1001.25
2019-04-29T14:01:33.249Z,821.25
2019-04-29T14:02:33.400Z,1490.63
2019-04-29T14:03:29.075Z,1479.38
2019-04-29T14:04:29.067Z,607.50
2019-04-29T14:05:32.490Z,1186.88
2019-04-29T14:06:29.042Z,669.38
2019-04-29T14:07:29.048Z,826.88
2019-04-29T14:08:30.532Z,635.63
2019-04-29T14:09:29.013Z,1012.50
2019-04-29T14:10:29.008Z,635.63
2019-04-29T14:11:29.138Z,534.38
2019-04-29T14:13:28.990Z,495.00
2019-04-29T14:15:29.609Z,641.25
2019-04-29T14:16:28.980Z,596.25
2019-04-29T14:17:31.738Z,489.38
2019-04-29T14:18:28.933Z,624.38
2019-04-29T14:19:42.751Z,489.38
2019-04-29T14:20:28.960Z,579.38
2019-04-29T14:21:30.183Z,495.00
2019-04-29T14:22:28.879Z,646.88
2019-04-29T14:23:29.084Z,579.38
2019-04-29T14:24:28.933Z,517.50
2019-04-29T14:25:28.860Z,461.25
2019-04-29T14:26:29.575Z,630.00
2019-04-29T14:27:28.859Z,556.88
2019-04-29T14:28:28.821Z,781.88
2019-04-29T14:29:30.297Z,843.75
2019-04-29T14:30:38.569Z,787.50
2019-04-29T14:31:30.327Z,742.50
2019-04-29T14:32:34.807Z,703.13
2019-04-29T14:33:29.076Z,703.13